Aérodrome :
LOGIN :

S'inscrire | Disclaimer

   EN    FR    IT 

 










Légende :    VFR   VFR Marginal   IFR   IFR Intensif   IFR Très Intensif
Visi : 
Plafond : 
>= 8 km
>= 3000ft
5 à 8 km
1000 à 3000 ft
1500m à 5 km
500 à 1000 ft
800 à 1500m
200 à 500 ft
< 800m
< 200 ft
Symboles :   Orages  Brouillard  Fortes neiges  Fortes précipitations  Vent > 20 kt
SIGMETs :   Divers  Orages  Givrage  Turbulence  Onde Orograph.  Cendres Volcan.






- Altitude de l'aérodrome : 72 ft
- Code IATA : UDE


EHVK - Volkel Airbase

DERNIER METAR :
  • 151355Z AUTO 09007KT 050V150 9999 OVC230 24/13 Q1010 BLU NOSIG

METARs EXPIRÉS :
  • 151325Z AUTO 11004KT 070V160 9999 OVC190 25/11 Q1010 BLU NOSIG
  • 151255Z AUTO 12004KT 020V160 9999 OVC210 25/11 Q1010 BLU NOSIG
  • 151225Z AUTO 10005KT 9999 BKN220 24/11 Q1010 BLU NOSIG
  • 151155Z AUTO 12004KT 040V210 9999 OVC240 24/11 Q1011 BLU NOSIG
  • 151125Z AUTO 11005KT 9999 SCT230 BKN290 24/12 Q1011 BLU NOSIG
  • 151055Z AUTO 12006KT 050V180 9999 OVC230 24/12 Q1011 BLU NOSIG
  • 151025Z AUTO 13005KT 070V240 9999 OVC190 23/12 Q1011 BLU BECMG 14008KT
  • 150955Z AUTO 18005KT 100V190 9999 OVC290 23/13 Q1012 BLU BECMG 14008KT
  • 150933Z AUTO 16004KT 100V210 9999 FEW042 OVC320 24/13 Q1012 BLU BECMG 14008KT
  • 150925Z AUTO 20004KT 140V250 9999 SCT320 23/13 Q1012 BLU BECMG 14008KT

TAF TAF EHVK
Valide du 15 à 13h jusqu'au 16 à 01h UTC


151232Z 1513/1601 10006KT CAVOK
TEMPO 1519/1524 4500 SHRA SCT030 BKN040CB
PROB40
TEMPO 1520/1523 VRB12G25KT 2500 +SHRA TSRA FEW012 SCT020 BKN030CB
BECMG 1521/1524 22012KT



MET'MAP, la Météo Aéronautique d'un coup d'oeil ! - Copyright ORBIFLY Décembre 2007 - Disclaimer

ORBIFLY MET'MAP TEAM :

Programmation & Développement : Alexandra Zaïnal
Sur une idée originale de : Baudouin d'Aumeries
Soutien technique & logistique : Manuel Goepfert
Assistance : Marc-Olivier Méhu




SOURCES & CREDITS :

   NOAA